Time;durP1;ratioP1;P1;durP2;ratioP2;P2;SDS_P1;SDS_P2;PMS_P1;PMS_P2;Temp;Humidity;BMP_temperature;BMP_pressure;BME280_temperature;BME280_humidity;BME280_pressure;Samples;Min_cycle;Max_cycle;Signal;HPM_P1;HPM_P2
2023/06/24 00:01:49;;;;;;;9.05;7.85;;;;;;;18.60;88.11;101940.66;5032322;28;20036;-66
2023/06/24 00:04:15;;;;;;;11.80;8.68;;;;;;;18.55;88.50;101945.16;5036644;28;21027;-66
2023/06/24 00:06:40;;;;;;;13.05;8.00;;;;;;;18.50;88.86;101946.09;5037205;28;20394;-66
2023/06/24 00:09:07;;;;;;;11.25;9.10;;;;;;;18.47;88.73;101946.16;5030663;28;20033;-67
2023/06/24 00:11:32;;;;;;;12.25;8.45;;;;;;;18.46;88.37;101941.81;5016568;28;20047;-66
2023/06/24 00:13:58;;;;;;;11.73;8.20;;;;;;;18.44;88.54;101948.00;5031811;28;20037;-67
2023/06/24 00:16:26;;;;;;;10.05;7.82;;;;;;;18.43;88.10;101946.28;5034949;28;20048;-67
2023/06/24 00:18:52;;;;;;;10.25;8.38;;;;;;;18.42;87.95;101950.66;5030535;28;20064;-67
2023/06/24 00:21:19;;;;;;;12.43;8.57;;;;;;;18.41;87.88;101955.91;5033932;28;20039;-67
2023/06/24 00:23:45;;;;;;;13.55;8.73;;;;;;;18.39;88.25;101947.22;5020770;28;20049;-66
2023/06/24 00:26:10;;;;;;;11.05;8.73;;;;;;;18.36;88.69;101953.41;5034380;28;20040;-66
2023/06/24 00:28:36;;;;;;;10.23;8.18;;;;;;;18.32;89.15;101949.13;5031232;28;20033;-67
2023/06/24 00:31:02;;;;;;;11.40;8.52;;;;;;;18.29;89.58;101948.31;5033806;28;20134;-67
2023/06/24 00:33:28;;;;;;;12.88;9.23;;;;;;;18.23;90.17;101943.22;5034689;28;20556;-66
2023/06/24 00:35:54;;;;;;;9.18;8.15;;;;;;;18.18;90.57;101932.84;5035931;28;20041;-66
2023/06/24 00:38:20;;;;;;;12.90;8.75;;;;;;;18.16;90.57;101931.16;5034633;28;20060;-66
2023/06/24 00:40:46;;;;;;;10.85;8.32;;;;;;;18.13;91.04;101928.59;5035031;28;20052;-67
2023/06/24 00:43:11;;;;;;;14.57;9.20;;;;;;;18.10;91.20;101933.91;5036764;28;20060;-66
2023/06/24 00:45:37;;;;;;;11.70;8.98;;;;;;;18.04;91.27;101931.41;5039881;28;20104;-67
2023/06/24 00:48:03;;;;;;;12.43;9.25;;;;;;;17.99;91.74;101938.50;5037299;28;20021;-67
2023/06/24 00:50:28;;;;;;;9.82;8.13;;;;;;;17.93;91.36;101940.34;5042496;28;20036;-66
2023/06/24 00:52:54;;;;;;;9.50;8.38;;;;;;;17.93;91.32;101939.47;5037452;28;20418;-67
2023/06/24 00:55:22;;;;;;;12.20;8.82;;;;;;;17.90;91.27;101947.38;5037006;28;20048;-67
2023/06/24 00:57:51;;;;;;;9.88;7.85;;;;;;;17.89;91.15;101949.16;5034720;28;20140;-67
2023/06/24 01:00:19;;;;;;;11.88;7.93;;;;;;;17.86;91.19;101956.19;5031117;28;20068;-67
2023/06/24 01:02:47;;;;;;;11.55;9.13;;;;;;;17.82;91.26;101951.88;5034960;28;20042;-66
2023/06/24 01:05:12;;;;;;;10.05;8.30;;;;;;;17.80;91.42;101959.75;5035179;28;20048;-67
2023/06/24 01:07:38;;;;;;;9.55;8.18;;;;;;;17.77;91.56;101957.19;5039496;28;20033;-66
2023/06/24 01:10:08;;;;;;;10.35;7.93;;;;;;;17.73;91.61;101952.91;5021458;28;20041;-66
2023/06/24 01:12:38;;;;;;;11.82;8.13;;;;;;;17.70;91.71;101952.09;5016738;28;20029;-66
2023/06/24 01:15:06;;;;;;;8.63;7.72;;;;;;;17.66;91.31;101950.44;5034395;28;20021;-67
2023/06/24 01:17:39;;;;;;;11.48;8.50;;;;;;;17.64;91.45;101950.47;5032221;28;20033;-66
2023/06/24 01:20:11;;;;;;;15.30;9.82;;;;;;;17.61;91.71;101944.41;5027873;28;20083;-67
2023/06/24 01:22:58;;;;;;;12.10;9.18;;;;;;;17.57;91.89;101940.16;5034503;28;20036;-67
2023/06/24 01:25:43;;;;;;;10.68;8.35;;;;;;;17.53;91.95;101944.56;5034454;28;20037;-67
2023/06/24 01:28:15;;;;;;;10.85;9.13;;;;;;;17.48;92.37;101940.31;5030603;28;20033;-66
2023/06/24 01:30:52;;;;;;;12.27;8.68;;;;;;;17.46;92.25;101948.19;5033922;28;20104;-66
2023/06/24 01:33:43;;;;;;;11.25;7.75;;;;;;;17.42;92.16;101946.53;5037217;28;20144;-66
2023/06/24 01:36:12;;;;;;;11.15;8.35;;;;;;;17.42;92.76;101938.69;5035376;28;20040;-66
2023/06/24 01:38:51;;;;;;;13.77;9.57;;;;;;;17.44;92.68;101942.13;5034451;28;20047;-66
2023/06/24 01:41:24;;;;;;;13.80;9.20;;;;;;;17.40;93.00;101940.44;5035984;28;20047;-64
2023/06/24 01:43:52;;;;;;;9.90;8.45;;;;;;;17.36;93.34;101939.63;5034803;28;20049;-64
2023/06/24 01:46:22;;;;;;;11.20;8.70;;;;;;;17.33;93.43;101944.91;5034624;28;20037;-64
2023/06/24 01:48:51;;;;;;;12.13;8.13;;;;;;;17.29;93.33;101939.78;5033845;28;20057;-64
2023/06/24 01:51:19;;;;;;;11.38;9.73;;;;;;;17.25;93.98;101938.97;5030349;28;20033;-64
2023/06/24 01:53:51;;;;;;;14.55;10.38;;;;;;;17.25;94.48;101943.31;5028100;28;20143;-64
2023/06/24 01:56:17;;;;;;;14.00;10.68;;;;;;;17.22;94.43;101940.75;5033720;28;20653;-64
2023/06/24 01:58:44;;;;;;;11.50;9.32;;;;;;;17.22;94.60;101940.75;5018487;28;20037;-65
2023/06/24 02:01:12;;;;;;;11.75;9.30;;;;;;;17.20;93.85;101940.81;5035478;28;20564;-64
2023/06/24 02:03:39;;;;;;;12.25;9.48;;;;;;;17.17;94.21;101939.97;5038393;28;20028;-64
2023/06/24 02:06:06;;;;;;;15.00;10.20;;;;;;;17.12;94.35;101941.81;5045160;28;20033;-64
2023/06/24 02:08:34;;;;;;;12.73;9.75;;;;;;;17.11;94.42;101942.69;5043434;28;20032;-65
2023/06/24 02:11:01;;;;;;;12.88;9.77;;;;;;;17.07;94.63;101941.88;5040539;28;20036;-65
2023/06/24 02:13:28;;;;;;;16.40;10.70;;;;;;;17.03;94.56;101942.84;5039640;28;20828;-64
2023/06/24 02:15:55;;;;;;;11.82;10.07;;;;;;;17.01;94.75;101941.97;5024960;28;20044;-64
2023/06/24 02:18:23;;;;;;;12.80;9.13;;;;;;;16.98;94.53;101941.19;5041626;28;20056;-65
2023/06/24 02:20:49;;;;;;;14.32;10.30;;;;;;;16.95;94.44;101936.00;5040746;28;20033;-64
2023/06/24 02:23:16;;;;;;;14.57;9.38;;;;;;;16.89;94.68;101942.16;5041652;28;20663;-64
2023/06/24 02:25:42;;;;;;;14.77;9.25;;;;;;;16.84;94.72;101936.16;5049869;28;20147;-64
2023/06/24 02:28:08;;;;;;;12.38;9.18;;;;;;;16.82;95.05;101927.50;5037914;28;20033;-64
2023/06/24 02:30:38;;;;;;;12.00;9.80;;;;;;;16.79;94.86;101928.41;5038247;28;20021;-65
2023/06/24 02:33:04;;;;;;;11.75;9.82;;;;;;;16.76;94.89;101931.03;5041176;28;20051;-65
2023/06/24 02:35:30;;;;;;;11.30;8.98;;;;;;;16.76;94.87;101930.19;5040630;28;20462;-64
2023/06/24 02:37:55;;;;;;;13.10;9.10;;;;;;;16.73;95.01;101936.31;5041696;28;20132;-64
2023/06/24 02:40:21;;;;;;;15.40;9.55;;;;;;;16.70;95.23;101944.19;5039609;28;20036;-65
2023/06/24 02:42:46;;;;;;;11.65;8.52;;;;;;;16.69;95.32;101947.66;5041088;28;20040;-64
2023/06/24 02:45:12;;;;;;;12.63;9.05;;;;;;;16.67;95.67;101946.84;5039382;28;20040;-64
2023/06/24 02:47:38;;;;;;;14.20;9.30;;;;;;;16.66;95.22;101949.47;5040810;28;20060;-64
2023/06/24 02:50:07;;;;;;;13.52;9.68;;;;;;;16.64;95.18;101939.06;5045727;28;20033;-64
2023/06/24 02:52:36;;;;;;;14.00;9.75;;;;;;;16.63;95.44;101941.66;5038343;28;20040;-65
2023/06/24 02:55:02;;;;;;;12.20;9.48;;;;;;;16.61;95.68;101941.72;5026523;28;20040;-64
2023/06/24 02:57:28;;;;;;;12.77;8.73;;;;;;;16.60;95.98;101946.94;5038691;28;20136;-64
2023/06/24 02:59:53;;;;;;;10.52;9.15;;;;;;;16.56;96.12;101943.50;5037163;28;20743;-64
2023/06/24 03:02:19;;;;;;;12.57;9.25;;;;;;;16.55;96.25;101944.41;5036516;28;20805;-65
2023/06/24 03:04:45;;;;;;;15.63;10.07;;;;;;;16.58;96.68;101946.97;5039501;28;20712;-64
2023/06/24 03:07:11;;;;;;;13.32;10.20;;;;;;;16.59;97.17;101942.63;5038786;28;20091;-64
2023/06/24 03:09:37;;;;;;;15.30;10.05;;;;;;;16.56;97.22;101938.28;5034599;28;20033;-64
2023/06/24 03:12:03;;;;;;;13.88;10.07;;;;;;;16.59;97.28;101942.63;5031142;28;20036;-64
2023/06/24 03:14:28;;;;;;;14.00;9.82;;;;;;;16.58;97.46;101946.97;5029757;28;20029;-64
2023/06/24 03:16:53;;;;;;;14.95;10.38;;;;;;;16.60;97.09;101949.53;5035108;28;20055;-64
2023/06/24 03:19:19;;;;;;;12.45;9.77;;;;;;;16.58;97.21;101953.94;5036846;28;20047;-64
2023/06/24 03:21:44;;;;;;;16.58;10.48;;;;;;;16.55;97.26;101947.00;5037268;28;20116;-64
2023/06/24 03:24:10;;;;;;;13.82;10.32;;;;;;;16.55;97.31;101952.22;5036576;28;20028;-64
2023/06/24 03:26:37;;;;;;;15.63;10.13;;;;;;;16.53;96.77;101954.03;5035515;28;20449;-64
2023/06/24 03:29:03;;;;;;;11.93;10.30;;;;;;;16.54;97.06;101955.72;5032741;28;20044;-64
2023/06/24 03:31:29;;;;;;;13.00;10.23;;;;;;;16.55;96.64;101949.63;5035114;28;20037;-64
2023/06/24 03:33:54;;;;;;;17.10;9.82;;;;;;;16.56;97.31;101950.50;5038806;28;20052;-66
2023/06/24 03:36:20;;;;;;;14.35;9.23;;;;;;;16.59;96.77;101961.72;5038780;28;20037;-66
2023/06/24 03:38:45;;;;;;;13.45;10.23;;;;;;;16.61;97.20;101956.50;5038460;28;20673;-66
2023/06/24 03:41:11;;;;;;;10.20;8.93;;;;;;;16.63;96.83;101955.59;5038105;28;20051;-66
2023/06/24 03:43:36;;;;;;;13.35;9.20;;;;;;;16.67;97.04;101959.03;5018953;28;20033;-66
2023/06/24 03:46:02;;;;;;;12.10;8.75;;;;;;;16.69;96.21;101960.72;5036282;28;20037;-66
2023/06/24 03:48:27;;;;;;;10.73;8.25;;;;;;;16.71;96.46;101952.88;5041752;28;20027;-66
2023/06/24 03:50:53;;;;;;;13.35;9.45;;;;;;;16.73;96.13;101953.72;5040748;28;20068;-66
2023/06/24 03:53:18;;;;;;;16.05;9.43;;;;;;;16.77;96.07;101956.28;5035364;28;20117;-66
2023/06/24 03:55:43;;;;;;;13.23;9.25;;;;;;;16.81;95.89;101950.13;5038155;28;20410;-66
2023/06/24 03:58:09;;;;;;;13.20;10.38;;;;;;;16.86;95.33;101950.06;5035142;28;20876;-66
2023/06/24 04:00:36;;;;;;;11.77;9.07;;;;;;;16.89;95.35;101951.78;5033310;28;20048;-66
2023/06/24 04:03:01;;;;;;;13.77;9.82;;;;;;;16.89;95.21;101947.41;5038352;28;20124;-66
2023/06/24 04:05:27;;;;;;;16.73;9.77;;;;;;;16.90;95.40;101945.66;5033128;28;20727;-66
2023/06/24 04:07:53;;;;;;;13.63;10.27;;;;;;;16.91;95.69;101950.00;5036152;28;20048;-66
2023/06/24 04:10:18;;;;;;;12.60;9.52;;;;;;;16.92;96.06;101956.97;5034578;28;20037;-66
2023/06/24 04:12:47;;;;;;;12.13;8.73;;;;;;;17.00;95.73;101960.31;5021362;28;20037;-65
2023/06/24 04:15:12;;;;;;;10.13;8.50;;;;;;;17.08;95.85;101955.81;5034530;28;20025;-66
2023/06/24 04:17:38;;;;;;;11.70;8.75;;;;;;;17.16;95.27;101965.25;5033500;28;20048;-66
2023/06/24 04:20:06;;;;;;;9.45;7.32;;;;;;;17.27;95.22;101971.19;5035605;28;20045;-66
2023/06/24 04:22:32;;;;;;;15.13;9.10;;;;;;;17.35;94.39;101963.19;5038309;28;20044;-66
2023/06/24 04:24:57;;;;;;;10.77;9.32;;;;;;;17.43;93.58;101967.41;5031947;28;20045;-63
2023/06/24 04:27:22;;;;;;;14.93;9.60;;;;;;;17.46;92.91;101960.38;5033536;28;20032;-64
2023/06/24 04:29:48;;;;;;;14.10;9.50;;;;;;;17.47;92.53;101975.19;5028162;28;20037;-64
2023/06/24 04:32:13;;;;;;;11.70;9.98;;;;;;;17.55;92.46;101978.53;5037027;28;20045;-63
2023/06/24 04:34:40;;;;;;;11.02;8.98;;;;;;;17.64;92.10;101979.22;5019612;28;20584;-64
2023/06/24 04:37:05;;;;;;;13.98;9.48;;;;;;;17.72;91.58;101977.31;5038181;28;20044;-63
2023/06/24 04:39:31;;;;;;;16.38;10.18;;;;;;;17.72;91.57;101981.72;5037435;28;20040;-63
2023/06/24 04:41:56;;;;;;;14.05;9.43;;;;;;;17.72;91.98;101979.09;5036990;28;20637;-64
2023/06/24 04:44:21;;;;;;;18.75;9.63;;;;;;;17.67;91.89;101983.53;5033630;28;20152;-64
2023/06/24 04:46:47;;;;;;;15.68;10.13;;;;;;;17.67;91.66;101987.00;5035238;28;20044;-63
2023/06/24 04:49:12;;;;;;;17.70;11.45;;;;;;;17.68;91.67;101988.75;5039345;28;20565;-63
2023/06/24 04:51:40;;;;;;;20.75;10.70;;;;;;;17.69;91.10;101989.63;5033074;28;20052;-64
2023/06/24 04:54:07;;;;;;;17.67;9.95;;;;;;;17.67;91.29;102002.72;5030100;28;20064;-64
2023/06/24 04:56:34;;;;;;;16.40;11.07;;;;;;;17.61;92.00;101994.97;5032758;28;20044;-64
2023/06/24 04:59:00;;;;;;;20.83;11.00;;;;;;;17.62;92.20;101993.22;5037343;28;20140;-64
2023/06/24 05:01:25;;;;;;;15.32;10.77;;;;;;;17.71;92.35;101993.06;5030059;28;20045;-64
2023/06/24 05:03:50;;;;;;;18.05;10.80;;;;;;;17.78;91.84;101998.13;5038422;28;20061;-63
2023/06/24 05:06:16;;;;;;;12.95;9.75;;;;;;;17.82;91.20;101991.97;5021113;28;20041;-63
2023/06/24 05:08:41;;;;;;;14.73;11.38;;;;;;;17.93;91.09;101984.81;5039253;28;20060;-64
2023/06/24 05:11:06;;;;;;;18.25;11.02;;;;;;;18.08;90.93;101981.03;5034723;28;20608;-64
2023/06/24 05:13:32;;;;;;;20.67;10.68;;;;;;;18.19;90.46;101984.31;5035913;28;20055;-64
2023/06/24 05:15:57;;;;;;;13.18;10.77;;;;;;;18.31;89.84;101993.66;5041392;28;20405;-64
2023/06/24 05:18:22;;;;;;;13.15;9.82;;;;;;;18.40;89.35;101991.69;5037098;28;20187;-64
2023/06/24 05:20:48;;;;;;;18.33;10.77;;;;;;;18.49;88.82;101988.03;5036651;28;20137;-63
2023/06/24 05:23:13;;;;;;;14.95;9.70;;;;;;;18.53;88.13;101987.94;5030200;28;20550;-63
2023/06/24 05:25:38;;;;;;;16.08;10.80;;;;;;;18.64;87.86;101990.31;5039144;28;20071;-64
2023/06/24 05:28:04;;;;;;;17.40;10.27;;;;;;;18.77;87.57;101991.75;5022554;28;20065;-64
2023/06/24 05:30:29;;;;;;;13.68;10.25;;;;;;;18.79;86.53;101994.38;5036872;28;20061;-64
2023/06/24 05:32:54;;;;;;;16.13;10.07;;;;;;;18.90;86.27;101977.53;5029540;28;20024;-65
2023/06/24 05:35:20;;;;;;;16.17;10.43;;;;;;;18.95;86.93;101991.38;5029007;28;20080;-64
2023/06/24 05:37:45;;;;;;;17.00;10.77;;;;;;;19.01;86.41;101983.38;5030743;28;20032;-64
2023/06/24 05:40:12;;;;;;;16.33;10.85;;;;;;;19.09;85.46;101982.34;5024357;28;20060;-64
2023/06/24 05:42:38;;;;;;;13.07;10.30;;;;;;;19.15;84.75;101980.41;5025126;28;20056;-64
2023/06/24 05:45:04;;;;;;;14.95;9.65;;;;;;;19.21;84.30;101984.63;5035003;28;20755;-64
2023/06/24 05:47:29;;;;;;;12.75;9.98;;;;;;;19.31;83.97;101979.13;5038266;28;20956;-65
2023/06/24 05:49:55;;;;;;;14.80;8.98;;;;;;;19.45;83.51;101974.41;5033432;28;20037;-64
2023/06/24 05:52:20;;;;;;;14.43;9.65;;;;;;;19.62;83.10;101972.19;5036720;28;20683;-64
2023/06/24 05:54:45;;;;;;;15.65;8.93;;;;;;;19.69;82.12;101978.13;5033632;28;20115;-64
2023/06/24 05:57:11;;;;;;;14.43;9.40;;;;;;;19.82;81.91;101978.72;5038346;28;20028;-64
2023/06/24 05:59:36;;;;;;;13.80;9.05;;;;;;;19.91;81.95;101978.47;5033503;28;20282;-64
2023/06/24 06:02:01;;;;;;;11.15;8.68;;;;;;;20.01;81.28;101972.91;5036165;28;20032;-64
2023/06/24 06:04:30;;;;;;;11.27;8.00;;;;;;;20.11;81.42;101976.13;5036801;28;20029;-65
2023/06/24 06:06:55;;;;;;;10.63;8.90;;;;;;;20.16;80.93;101977.72;5035646;28;20098;-65
2023/06/24 06:09:22;;;;;;;13.90;9.10;;;;;;;20.25;79.95;101978.34;5036500;28;20105;-64
2023/06/24 06:11:47;;;;;;;11.50;7.93;;;;;;;20.37;80.28;101985.88;5035288;28;20533;-65
2023/06/24 06:14:13;;;;;;;9.27;7.60;;;;;;;20.46;79.28;101981.22;5033650;28;20048;-65
2023/06/24 06:16:38;;;;;;;7.95;6.85;;;;;;;20.54;76.95;101970.50;5034580;28;20457;-65
2023/06/24 06:19:04;;;;;;;9.68;7.13;;;;;;;20.66;76.93;101976.22;5036495;28;20041;-65
2023/06/24 06:21:29;;;;;;;10.07;7.03;;;;;;;20.74;76.87;101975.16;5032686;28;20033;-64
2023/06/24 06:23:55;;;;;;;12.60;7.88;;;;;;;20.78;76.05;101975.00;5034612;28;20117;-65
2023/06/24 06:26:21;;;;;;;12.85;7.88;;;;;;;20.86;75.48;101967.75;5039764;28;20043;-65
2023/06/24 06:28:47;;;;;;;12.82;7.53;;;;;;;20.97;75.66;101972.66;5035836;28;20307;-65
2023/06/24 06:31:13;;;;;;;10.38;6.95;;;;;;;21.01;75.37;101969.91;5034364;28;20488;-64
2023/06/24 06:33:38;;;;;;;10.75;7.15;;;;;;;21.09;74.94;101973.13;5034768;28;20032;-65
2023/06/24 06:36:04;;;;;;;14.25;7.70;;;;;;;21.12;72.50;101959.88;5038195;28;20037;-64
2023/06/24 06:38:29;;;;;;;12.60;7.65;;;;;;;21.22;72.19;101961.28;5037353;28;20513;-65
2023/06/24 06:40:55;;;;;;;12.23;8.40;;;;;;;21.22;71.12;101956.03;5033943;28;20041;-65
2023/06/24 06:43:21;;;;;;;10.25;8.05;;;;;;;21.34;71.13;101962.66;5037139;28;20767;-65
2023/06/24 06:45:46;;;;;;;13.13;7.47;;;;;;;21.46;71.27;101961.38;5033457;28;20033;-65
2023/06/24 06:48:12;;;;;;;11.85;8.02;;;;;;;21.52;70.72;101962.00;5038576;28;20102;-65
2023/06/24 06:50:37;;;;;;;9.88;7.47;;;;;;;21.58;70.32;101961.00;5038239;28;20033;-64
2023/06/24 06:53:02;;;;;;;10.10;6.45;;;;;;;21.62;70.25;101963.47;5038641;28;20041;-64
2023/06/24 06:55:28;;;;;;;9.68;7.07;;;;;;;21.70;69.94;101963.22;5035643;28;20069;-64
2023/06/24 06:57:53;;;;;;;12.38;7.18;;;;;;;21.78;69.34;101950.63;5037322;28;20048;-64
2023/06/24 07:00:18;;;;;;;10.05;8.00;;;;;;;21.85;69.36;101953.91;5033400;28;20086;-65
2023/06/24 07:02:44;;;;;;;9.90;6.68;;;;;;;21.88;69.14;101954.63;5037235;28;20111;-65
2023/06/24 07:05:09;;;;;;;7.70;6.53;;;;;;;21.95;69.19;101957.91;5037015;28;20037;-65
2023/06/24 07:07:39;;;;;;;14.77;7.68;;;;;;;22.03;68.51;101951.44;5035369;28;20071;-64
2023/06/24 07:10:05;;;;;;;14.30;8.07;;;;;;;22.12;67.85;101948.47;5035964;28;20060;-65
2023/06/24 07:12:31;;;;;;;14.00;8.98;;;;;;;22.18;67.58;101950.88;5034784;28;20033;-65
2023/06/24 07:14:56;;;;;;;10.30;7.20;;;;;;;22.26;67.52;101953.22;5029974;28;20048;-65
2023/06/24 07:17:21;;;;;;;13.25;8.23;;;;;;;22.37;66.59;101945.75;5034211;28;20048;-64
2023/06/24 07:19:47;;;;;;;9.50;7.07;;;;;;;22.46;66.99;101960.38;5028562;28;20037;-64
2023/06/24 07:22:14;;;;;;;12.15;9.02;;;;;;;22.51;66.21;101947.88;5015889;28;20041;-65
2023/06/24 07:24:39;;;;;;;14.77;8.20;;;;;;;22.58;66.78;101957.28;5034040;28;20075;-65
2023/06/24 07:27:05;;;;;;;10.10;8.02;;;;;;;22.64;65.45;101941.22;5019397;28;20033;-65
2023/06/24 07:29:30;;;;;;;12.82;8.68;;;;;;;22.72;64.69;101933.88;5029427;28;20029;-64
2023/06/24 07:31:56;;;;;;;12.52;9.63;;;;;;;22.71;64.45;101929.53;5030389;28;20072;-65
2023/06/24 07:34:21;;;;;;;11.95;8.65;;;;;;;22.76;64.64;101936.34;5004186;28;20043;-65
2023/06/24 07:36:46;;;;;;;11.25;7.85;;;;;;;22.87;64.46;101931.47;5027646;28;20065;-65
2023/06/24 07:39:12;;;;;;;10.60;7.68;;;;;;;22.92;63.70;101923.38;5032902;28;20060;-65
2023/06/24 07:41:37;;;;;;;10.98;8.18;;;;;;;22.97;63.14;101917.91;5038002;28;20638;-64
2023/06/24 07:44:03;;;;;;;13.20;7.90;;;;;;;22.99;62.36;101908.16;5035906;28;20462;-64
2023/06/24 07:46:29;;;;;;;11.00;7.30;;;;;;;23.11;62.18;101911.16;5035647;28;20041;-64
2023/06/24 07:48:55;;;;;;;14.30;7.32;;;;;;;23.19;61.91;101906.41;5041913;28;20047;-65
2023/06/24 07:51:20;;;;;;;11.25;7.95;;;;;;;23.27;61.35;101900.84;5037967;28;20037;-64
2023/06/24 07:53:45;;;;;;;15.13;9.60;;;;;;;23.39;61.22;101900.31;5029632;28;20033;-65
2023/06/24 07:56:11;;;;;;;11.50;9.10;;;;;;;23.46;60.40;101891.19;5034030;28;20041;-65
2023/06/24 07:58:38;;;;;;;12.43;8.88;;;;;;;23.56;60.11;101879.31;5017928;28;20494;-65
2023/06/24 08:01:04;;;;;;;12.98;7.72;;;;;;;23.62;60.32;101894.88;5032660;28;20071;-65
2023/06/24 08:03:29;;;;;;;18.70;10.32;;;;;;;23.63;60.38;101901.84;5035582;28;20495;-65
2023/06/24 08:05:56;;;;;;;12.55;9.25;;;;;;;23.62;60.68;101896.66;5035926;28;20029;-65
2023/06/24 08:08:21;;;;;;;13.98;9.93;;;;;;;23.56;61.52;101923.31;5029205;28;20083;-65
2023/06/24 08:10:47;;;;;;;15.10;10.25;;;;;;;23.61;60.63;101902.84;5032817;28;20732;-66
2023/06/24 08:13:12;;;;;;;17.73;9.13;;;;;;;23.66;60.63;101901.72;5027430;28;20766;-65
2023/06/24 08:15:37;;;;;;;19.00;10.77;;;;;;;23.71;61.81;101938.47;5039416;28;20163;-65
2023/06/24 08:18:03;;;;;;;15.63;11.98;;;;;;;23.73;61.38;101926.94;5035311;28;20036;-63
2023/06/24 08:20:28;;;;;;;21.35;12.10;;;;;;;23.63;61.28;101917.69;5039052;28;20041;-64
2023/06/24 08:22:54;;;;;;;14.80;11.02;;;;;;;23.70;61.96;101928.84;5029365;28;20042;-64
2023/06/24 08:25:19;;;;;;;15.68;11.48;;;;;;;23.78;61.44;101908.22;5030554;28;20041;-64
2023/06/24 08:27:46;;;;;;;18.23;10.95;;;;;;;23.81;60.81;101903.66;5033739;28;20045;-64
2023/06/24 08:30:13;;;;;;;18.85;10.93;;;;;;;23.83;60.43;101896.56;5016036;28;20504;-64
2023/06/24 08:32:40;;;;;;;19.30;12.05;;;;;;;23.92;60.22;101892.63;5034461;28;20049;-64
2023/06/24 08:35:06;;;;;;;15.30;10.20;;;;;;;24.01;60.29;101892.25;5033280;28;20059;-65
2023/06/24 08:37:32;;;;;;;16.40;10.55;;;;;;;24.17;60.84;101902.94;5034595;28;20061;-65
2023/06/24 08:39:57;;;;;;;16.50;11.63;;;;;;;24.21;61.09;101901.88;5032762;28;20125;-65
2023/06/24 08:42:23;;;;;;;18.88;12.18;;;;;;;24.30;59.91;101888.22;5031425;28;20338;-65
2023/06/24 08:44:48;;;;;;;17.92;11.30;;;;;;;24.34;58.99;101869.50;5029832;28;20052;-65
2023/06/24 08:47:16;;;;;;;17.00;11.13;;;;;;;24.38;59.39;101884.28;5029286;28;20076;-64
2023/06/24 08:49:49;;;;;;;21.98;12.18;;;;;;;24.54;59.39;101877.34;5033839;28;20068;-64
2023/06/24 08:52:16;;;;;;;18.25;12.68;;;;;;;24.65;58.51;101875.94;5032091;28;20493;-65
2023/06/24 08:54:46;;;;;;;16.95;11.57;;;;;;;24.57;58.67;101870.19;5031279;28;20123;-65
2023/06/24 08:57:14;;;;;;;13.45;9.75;;;;;;;24.72;58.50;101872.97;5039157;28;20029;-64
2023/06/24 08:59:41;;;;;;;16.08;11.00;;;;;;;24.79;58.41;101876.19;5033434;28;20057;-63
2023/06/24 09:02:06;;;;;;;18.48;11.48;;;;;;;24.74;58.30;101873.75;5034001;28;20056;-64
2023/06/24 09:04:32;;;;;;;16.80;12.65;;;;;;;24.74;57.66;101862.31;5032893;28;20605;-64
2023/06/24 09:06:58;;;;;;;19.70;12.13;;;;;;;24.75;58.51;101874.59;4997348;28;1139023;-64
2023/06/24 09:09:24;;;;;;;18.73;11.10;;;;;;;24.82;59.92;101903.31;5030659;28;20505;-64
2023/06/24 09:12:00;;;;;;;18.55;10.98;;;;;;;25.03;58.83;101889.00;5029149;28;20044;-64
2023/06/24 09:14:28;;;;;;;14.18;9.70;;;;;;;25.18;58.57;101876.78;5012318;28;20041;-64
2023/06/24 09:16:56;;;;;;;18.67;11.18;;;;;;;25.21;57.65;101852.81;5027190;28;20040;-64
2023/06/24 09:19:29;;;;;;;19.05;11.43;;;;;;;25.19;57.58;101853.81;5028192;28;20107;-63
2023/06/24 09:21:58;;;;;;;16.90;11.13;;;;;;;25.17;56.46;101839.81;5030105;28;20780;-64
2023/06/24 09:24:27;;;;;;;13.68;10.25;;;;;;;25.23;56.37;101843.03;5029896;28;20025;-65
2023/06/24 09:26:56;;;;;;;15.80;9.05;;;;;;;25.29;56.75;101840.06;5031578;28;20049;-64
2023/06/24 09:29:25;;;;;;;12.90;8.18;;;;;;;25.36;56.24;101829.97;5029891;28;20044;-65
2023/06/24 09:31:55;;;;;;;15.15;10.30;;;;;;;25.38;55.24;101813.06;5031057;28;20064;-64
2023/06/24 09:34:21;;;;;;;15.20;10.35;;;;;;;25.38;55.29;101810.41;5032513;28;20049;-65
2023/06/24 09:36:54;;;;;;;11.38;7.50;;;;;;;25.50;54.89;101803.69;5033606;28;20031;-65
2023/06/24 09:39:28;;;;;;;11.38;7.40;;;;;;;25.62;53.24;101766.78;5014713;28;20044;-64
2023/06/24 09:41:54;;;;;;;9.38;6.13;;;;;;;25.74;52.92;101773.19;5026778;28;20095;-64
2023/06/24 09:44:20;;;;;;;14.93;7.82;;;;;;;25.82;53.15;101775.41;5033093;28;20051;-64
2023/06/24 09:46:46;;;;;;;10.10;7.45;;;;;;;25.84;54.09;101790.28;5031318;28;20030;-65
2023/06/24 09:49:11;;;;;;;14.35;9.35;;;;;;;25.75;51.02;101742.25;5028732;28;20044;-63
2023/06/24 09:51:43;;;;;;;13.40;8.02;;;;;;;25.66;51.75;101753.34;5030385;28;20033;-63
2023/06/24 09:54:10;;;;;;;9.77;5.97;;;;;;;25.90;52.40;101760.81;5029633;28;20120;-64
2023/06/24 09:56:37;;;;;;;11.75;7.68;;;;;;;26.04;51.31;101749.41;5031171;28;21750;-65
2023/06/24 09:59:04;;;;;;;9.57;6.25;;;;;;;26.21;51.78;101756.44;5030338;28;20201;-64
2023/06/24 10:01:32;;;;;;;8.38;5.40;;;;;;;26.39;50.74;101731.53;5029038;28;20056;-64
2023/06/24 10:03:58;;;;;;;10.93;7.75;;;;;;;26.36;49.60;101710.50;5032291;28;20526;-64
2023/06/24 10:06:25;;;;;;;12.48;6.15;;;;;;;26.47;50.43;101730.13;5015996;28;20098;-64
2023/06/24 10:08:52;;;;;;;11.27;7.93;;;;;;;26.51;49.96;101728.97;5033538;28;20749;-65
2023/06/24 10:11:17;;;;;;;9.75;6.13;;;;;;;26.77;50.39;101739.84;5028253;28;20096;-65
2023/06/24 10:13:42;;;;;;;9.73;5.85;;;;;;;26.90;48.62;101696.56;5030663;28;20066;-65
2023/06/24 10:16:08;;;;;;;8.73;5.38;;;;;;;26.99;48.16;101693.34;5035783;28;20041;-66
2023/06/24 10:18:35;;;;;;;8.35;6.35;;;;;;;27.06;48.30;101689.38;5034016;28;21561;-66
2023/06/24 10:21:00;;;;;;;9.90;6.43;;;;;;;27.07;47.21;101669.00;5032836;28;20453;-64
2023/06/24 10:23:43;;;;;;;10.90;7.10;;;;;;;26.91;46.98;101673.53;5035455;28;20041;-65
2023/06/24 10:26:10;;;;;;;6.90;5.05;;;;;;;27.14;48.35;101686.22;5035760;28;20033;-65
2023/06/24 10:29:07;;;;;;;8.77;5.05;;;;;;;27.37;47.71;101690.97;5033042;28;20579;-64
2023/06/24 10:31:38;;;;;;;9.15;4.85;;;;;;;27.37;45.98;101652.94;5030511;28;20052;-64
2023/06/24 10:34:20;;;;;;;10.13;4.75;;;;;;;27.43;45.33;101640.09;5033877;28;20042;-64
2023/06/24 10:37:07;;;;;;;8.77;5.35;;;;;;;27.24;44.60;101634.28;5024076;28;20029;-64
2023/06/24 10:39:50;;;;;;;9.88;4.90;;;;;;;27.29;45.30;101645.44;5037081;28;20022;-65
2023/06/24 10:42:24;;;;;;;7.35;5.30;;;;;;;27.44;45.07;101635.63;5030891;28;20918;-65
2023/06/24 10:44:50;;;;;;;;;;;;;;;27.58;47.50;101681.63;5034597;28;20037;-65
2023/06/24 10:47:16;;;;;;;8.57;4.63;;;;;;;27.79;45.25;101640.38;5035607;28;19924;-64
2023/06/24 10:49:41;;;;;;;5.90;3.95;;;;;;;27.91;44.25;101621.94;5034430;28;20095;-65
2023/06/24 10:52:11;;;;;;;7.25;4.55;;;;;;;27.96;43.53;101604.72;5012010;28;20566;-65
2023/06/24 10:54:40;;;;;;;7.82;4.80;;;;;;;27.88;43.32;101604.38;5029916;28;20033;-65
2023/06/24 10:57:10;;;;;;;8.50;4.47;;;;;;;28.03;43.83;101603.34;5035349;28;20036;-65
2023/06/24 10:59:42;;;;;;;8.68;4.60;;;;;;;27.85;43.13;101593.94;5033824;28;20525;-64
2023/06/24 11:02:12;;;;;;;6.07;3.78;;;;;;;27.68;43.97;101607.50;5035553;28;20099;-65
2023/06/24 11:04:44;;;;;;;5.45;4.05;;;;;;;28.00;42.74;101579.63;5029089;28;20041;-65
2023/06/24 11:07:10;;;;;;;5.32;3.70;;;;;;;28.23;42.31;101578.09;5034295;28;20045;-64
2023/06/24 11:09:35;;;;;;;6.03;4.15;;;;;;;28.24;41.64;101580.63;5034222;28;20655;-65
2023/06/24 11:12:03;;;;;;;7.18;4.00;;;;;;;28.35;41.77;101571.94;5018795;28;20203;-65
2023/06/24 11:14:28;;;;;;;6.85;4.18;;;;;;;28.60;41.50;101571.03;5035200;28;20037;-65
2023/06/24 11:16:54;;;;;;;5.55;3.92;;;;;;;28.80;42.40;101591.78;5035873;28;20071;-64